Time;durP1;ratioP1;P1;durP2;ratioP2;P2;SDS_P1;SDS_P2;PMS_P1;PMS_P2;Temp;Humidity;BMP_temperature;BMP_pressure;BME280_temperature;BME280_humidity;BME280_pressure;Samples;Min_cycle;Max_cycle;Signal;HPM_P1;HPM_P2
2022/12/21 00:01:21;;;;;;;11.88;9.35;;;;;;;19.55;47.46;101951.59;4790939;29;20071;-50
2022/12/21 00:03:57;;;;;;;10.52;8.95;;;;;;;19.55;47.29;101954.28;4790191;30;20062;-51
2022/12/21 00:06:26;;;;;;;12.10;9.15;;;;;;;19.54;47.21;101963.31;4789659;29;20047;-48
2022/12/21 00:08:56;;;;;;;11.15;9.25;;;;;;;19.54;47.24;101958.81;4790447;30;20062;-51
2022/12/21 00:11:24;;;;;;;12.23;9.55;;;;;;;19.52;47.11;101958.03;4789386;29;20063;-50
2022/12/21 00:13:52;;;;;;;11.20;8.88;;;;;;;19.52;46.99;101960.72;4789911;30;20054;-51
2022/12/21 00:16:22;;;;;;;11.93;10.60;;;;;;;19.52;46.96;101955.34;4790306;30;20072;-53
2022/12/21 00:18:50;;;;;;;10.65;8.35;;;;;;;19.51;47.12;101945.56;4789932;30;20055;-53
2022/12/21 00:21:22;;;;;;;10.80;9.57;;;;;;;19.49;47.06;101943.00;4790052;30;20051;-52
2022/12/21 00:23:52;;;;;;;11.35;8.38;;;;;;;19.50;47.13;101941.19;4790280;30;20051;-52
2022/12/21 00:26:22;;;;;;;9.85;8.55;;;;;;;19.49;47.11;101943.00;4789855;30;20051;-51
2022/12/21 00:28:52;;;;;;;12.45;9.50;;;;;;;19.50;46.83;101938.50;4789742;30;20055;-49
2022/12/21 00:31:26;;;;;;;10.48;9.15;;;;;;;19.49;47.00;101934.09;4790080;30;20051;-50
2022/12/21 00:33:54;;;;;;;10.35;9.35;;;;;;;19.48;46.95;101929.66;4789782;30;20350;-50
2022/12/21 00:36:23;;;;;;;11.13;9.15;;;;;;;19.47;46.97;101925.28;4789653;30;20066;-51
2022/12/21 00:38:51;;;;;;;11.43;9.45;;;;;;;19.47;46.83;101934.19;4789408;30;20845;-51
2022/12/21 00:41:21;;;;;;;12.27;9.75;;;;;;;19.46;46.87;101937.84;4789806;30;20059;-51
2022/12/21 00:43:51;;;;;;;13.70;9.60;;;;;;;19.46;46.74;101939.66;4789323;30;20058;-49
2022/12/21 00:46:30;;;;;;;12.27;9.73;;;;;;;19.46;46.67;101939.66;4789191;30;20055;-53
2022/12/21 00:49:00;;;;;;;11.70;9.32;;;;;;;19.46;46.86;101939.66;4789202;30;20051;-49
2022/12/21 00:51:29;;;;;;;10.07;8.55;;;;;;;19.46;46.81;101920.88;4788535;30;20059;-51
2022/12/21 00:53:57;;;;;;;11.73;9.70;;;;;;;19.45;46.83;101914.66;4787935;29;20482;-52
2022/12/21 00:56:26;;;;;;;10.15;8.38;;;;;;;19.45;46.86;101932.59;4787815;30;20063;-50
2022/12/21 00:58:53;;;;;;;10.70;9.18;;;;;;;19.46;46.66;101920.88;4789483;30;20070;-50
2022/12/21 01:01:24;;;;;;;11.57;8.85;;;;;;;19.45;46.85;101917.34;4788285;29;20055;-49
2022/12/21 01:03:53;;;;;;;12.05;9.00;;;;;;;19.45;46.73;101921.84;4787747;29;20062;-51
2022/12/21 01:06:25;;;;;;;11.57;9.35;;;;;;;19.44;46.53;101915.59;4789468;29;20048;-49
2022/12/21 01:08:54;;;;;;;9.80;8.45;;;;;;;19.44;46.59;101920.09;4788636;30;20051;-49
2022/12/21 01:11:23;;;;;;;10.27;8.93;;;;;;;19.44;46.54;101923.66;4788330;29;20055;-49
2022/12/21 01:13:52;;;;;;;12.10;9.93;;;;;;;19.43;46.74;101916.56;4789316;29;20080;-50
2022/12/21 01:16:39;;;;;;;11.20;9.18;;;;;;;19.44;46.67;101917.41;4787528;29;20066;-49
2022/12/21 01:19:07;;;;;;;12.00;9.48;;;;;;;19.43;46.52;101911.19;4787588;30;20509;-53
2022/12/21 01:21:35;;;;;;;13.38;9.13;;;;;;;19.43;46.70;101905.81;4788176;29;20383;-51
2022/12/21 01:24:02;;;;;;;12.57;10.00;;;;;;;19.43;46.61;101910.34;4787869;29;20055;-50
2022/12/21 01:26:30;;;;;;;13.05;10.30;;;;;;;19.43;46.68;101899.59;4787856;29;20072;-49
2022/12/21 01:28:57;;;;;;;11.63;9.55;;;;;;;19.42;46.85;101900.56;4802312;29;20062;-50
2022/12/21 01:31:25;;;;;;;11.23;8.75;;;;;;;19.42;46.66;101892.50;4787499;30;20055;-51
2022/12/21 01:33:52;;;;;;;11.00;9.10;;;;;;;19.41;46.79;101894.34;4788902;30;20078;-50
2022/12/21 01:36:20;;;;;;;12.98;10.32;;;;;;;19.41;46.77;101880.91;4787786;29;20418;-50
2022/12/21 01:38:47;;;;;;;11.27;10.07;;;;;;;19.41;46.59;101883.59;4788582;30;20051;-50
2022/12/21 01:41:24;;;;;;;10.57;9.23;;;;;;;19.40;46.73;101879.16;4787718;29;20066;-50
2022/12/21 01:44:00;;;;;;;13.60;10.63;;;;;;;19.39;46.66;101877.47;4788499;29;20059;-52
2022/12/21 01:46:41;;;;;;;15.43;11.75;;;;;;;19.40;46.77;101884.53;4788500;30;20055;-50
2022/12/21 01:49:32;;;;;;;12.30;10.05;;;;;;;19.39;46.70;101872.09;4788917;30;20055;-50
2022/12/21 01:52:05;;;;;;;13.27;11.00;;;;;;;19.40;46.69;101872.94;4787756;30;20050;-52
2022/12/21 01:54:39;;;;;;;12.75;10.57;;;;;;;19.38;46.73;101869.53;4786018;30;20043;-50
2022/12/21 01:57:10;;;;;;;13.20;11.05;;;;;;;19.38;46.83;101865.00;4788376;30;20513;-54
2022/12/21 01:59:45;;;;;;;13.88;11.85;;;;;;;19.37;46.77;101855.25;4787097;29;20059;-50
2022/12/21 02:02:23;;;;;;;15.18;11.45;;;;;;;19.37;46.79;101849.00;4788152;30;20431;-50
2022/12/21 02:04:52;;;;;;;13.65;10.40;;;;;;;19.37;46.75;101849.00;4787197;29;20062;-50
2022/12/21 02:07:21;;;;;;;14.07;11.70;;;;;;;19.37;46.85;101838.28;4788031;30;20054;-50
2022/12/21 02:09:50;;;;;;;14.75;11.00;;;;;;;19.37;46.88;101840.97;4786812;29;20055;-49
2022/12/21 02:12:18;;;;;;;15.63;12.02;;;;;;;19.36;46.62;101849.97;4786542;30;20071;-49
2022/12/21 02:14:48;;;;;;;14.88;12.77;;;;;;;19.36;46.82;101847.28;4788641;30;20058;-52
2022/12/21 02:17:51;;;;;;;15.20;12.02;;;;;;;19.36;46.86;101840.06;4802165;29;20062;-51
2022/12/21 02:20:43;;;;;;;14.40;12.50;;;;;;;19.36;46.86;101840.06;4788010;30;20367;-52
2022/12/21 02:23:23;;;;;;;17.40;12.32;;;;;;;19.36;46.81;101839.22;4801743;29;20066;-49
2022/12/21 02:26:09;;;;;;;15.60;12.85;;;;;;;19.36;46.96;101845.44;4788331;30;20078;-49
2022/12/21 02:29:08;;;;;;;14.77;11.77;;;;;;;19.36;46.93;101834.69;4790997;29;20047;-50
2022/12/21 02:31:57;;;;;;;16.23;13.85;;;;;;;19.36;46.75;101834.69;4792042;30;20067;-50
2022/12/21 02:34:29;;;;;;;17.27;13.15;;;;;;;19.36;46.80;101823.97;4794489;30;20055;-52
2022/12/21 02:37:24;;;;;;;15.30;11.93;;;;;;;19.35;46.92;101826.78;4794073;30;20055;-49
2022/12/21 02:40:18;;;;;;;16.50;12.75;;;;;;;19.35;46.82;101830.31;4793898;30;20047;-49
2022/12/21 02:46:17;;;;;;;16.60;12.98;;;;;;;19.35;47.02;101822.25;4792793;29;20056;-51
2022/12/21 02:48:54;;;;;;;17.55;14.82;;;;;;;19.35;46.89;101814.19;4793533;30;20059;-53
2022/12/21 02:51:34;;;;;;;15.50;13.57;;;;;;;19.35;46.67;101797.22;4792890;29;20059;-50
2022/12/21 02:54:02;;;;;;;18.95;14.57;;;;;;;19.34;46.83;101793.69;4791151;30;20051;-50
2022/12/21 02:56:30;;;;;;;19.13;14.25;;;;;;;19.35;46.78;101807.97;4774235;30;20048;-52
2022/12/21 02:58:58;;;;;;;18.98;14.18;;;;;;;19.34;46.84;101808.94;4775802;30;20044;-49
2022/12/21 03:02:05;;;;;;;20.17;15.48;;;;;;;19.34;46.85;101798.22;4775436;30;20063;-52
2022/12/21 03:04:41;;;;;;;21.48;15.45;;;;;;;19.34;46.84;101792.84;4774950;30;20059;-49
2022/12/21 03:07:14;;;;;;;20.63;16.20;;;;;;;19.33;46.97;101788.44;4789843;29;20070;-49
2022/12/21 03:10:14;;;;;;;21.70;15.75;;;;;;;19.33;46.91;101801.88;4789734;29;20059;-50
2022/12/21 03:13:00;;;;;;;21.27;16.85;;;;;;;19.32;46.98;101787.56;4774746;29;20515;-51
2022/12/21 03:15:43;;;;;;;21.42;16.63;;;;;;;19.32;46.97;101790.25;4775683;30;20047;-52
2022/12/21 03:18:27;;;;;;;20.73;16.48;;;;;;;19.33;46.97;101791.13;4789201;30;20055;-48
2022/12/21 03:21:08;;;;;;;21.10;16.17;;;;;;;19.32;46.97;101784.03;4775482;30;20517;-51
2022/12/21 03:23:46;;;;;;;21.20;16.83;;;;;;;19.32;46.96;101792.94;4789181;30;20403;-50
2022/12/21 03:26:37;;;;;;;22.88;16.17;;;;;;;19.32;47.08;101784.88;4775357;30;20047;-51
2022/12/21 03:29:08;;;;;;;25.27;17.52;;;;;;;19.32;47.01;101786.69;4793895;29;20062;-51
2022/12/21 03:31:41;;;;;;;23.20;17.17;;;;;;;19.31;47.08;101785.00;4792988;30;20062;-49
2022/12/21 03:34:23;;;;;;;;;;;;;;;19.31;46.96;101785.00;4793584;30;20078;-52
2022/12/21 03:37:02;;;;;;;20.90;17.08;;;;;;;19.31;46.94;101776.94;4793144;30;20029;-49
2022/12/21 03:39:32;;;;;;;21.80;17.90;;;;;;;19.31;47.02;101771.56;4792074;29;20048;-50
2022/12/21 03:42:24;;;;;;;25.30;17.73;;;;;;;19.30;47.09;101783.28;4790599;30;20062;-49
2022/12/21 03:45:03;;;;;;;28.05;19.40;;;;;;;19.30;46.99;101773.41;4790279;30;20051;-51
2022/12/21 03:47:37;;;;;;;27.80;19.55;;;;;;;19.29;47.10;101777.06;4789487;30;20399;-50
2022/12/21 03:50:09;;;;;;;25.33;18.98;;;;;;;19.29;47.11;101770.84;4789723;29;20062;-50
2022/12/21 03:52:43;;;;;;;25.50;19.45;;;;;;;19.29;47.17;101774.38;4790861;29;20170;-51
2022/12/21 03:55:30;;;;;;;25.83;18.70;;;;;;;19.29;47.06;101760.94;4788542;30;20072;-51
2022/12/21 03:57:59;;;;;;;28.13;19.88;;;;;;;19.30;47.18;101769.84;4790673;30;20517;-53
2022/12/21 04:00:30;;;;;;;24.90;20.15;;;;;;;19.29;47.06;101771.69;4790465;30;20051;-50
2022/12/21 04:03:10;;;;;;;26.63;20.15;;;;;;;19.30;47.04;101769.84;4790245;30;20055;-51
2022/12/21 04:06:02;;;;;;;28.80;19.73;;;;;;;19.29;47.17;101763.63;4790365;30;20051;-53
2022/12/21 04:08:30;;;;;;;25.88;20.58;;;;;;;19.29;46.99;101763.63;4790439;30;20055;-49
2022/12/21 04:10:58;;;;;;;25.23;19.85;;;;;;;19.28;47.04;101759.22;4790244;30;20051;-50
2022/12/21 04:13:26;;;;;;;25.48;19.48;;;;;;;19.27;47.07;101761.03;4790026;30;20541;-50
2022/12/21 04:16:05;;;;;;;29.90;21.67;;;;;;;19.28;47.12;101751.16;4790538;30;20047;-50
2022/12/21 04:21:19;;;;;;;27.08;20.48;;;;;;;19.27;47.14;101758.34;4789832;30;20062;-52
2022/12/21 04:29:18;;;;;;;30.52;21.90;;;;;;;19.27;47.10;101755.66;4789986;30;20390;-52
2022/12/21 04:31:45;;;;;;;29.98;21.92;;;;;;;19.27;47.26;101768.25;4789744;30;20051;-53
2022/12/21 04:34:13;;;;;;;29.05;21.63;;;;;;;19.25;47.15;101771.03;4789645;30;20078;-50
2022/12/21 04:39:26;;;;;;;29.02;21.52;;;;;;;19.27;47.16;101760.19;4790205;29;20055;-53
2022/12/21 04:41:53;;;;;;;29.98;23.00;;;;;;;19.27;47.07;101760.19;4789539;30;20052;-51
2022/12/21 04:44:20;;;;;;;33.47;22.88;;;;;;;19.26;47.14;101753.97;4789972;29;20056;-54
2022/12/21 04:46:48;;;;;;;32.50;23.80;;;;;;;19.26;47.18;101751.28;4789822;30;20051;-52
2022/12/21 04:49:15;;;;;;;32.42;22.75;;;;;;;19.26;47.23;101740.53;4789425;30;20383;-49
2022/12/21 04:51:42;;;;;;;30.83;23.98;;;;;;;19.26;47.22;101735.16;4788557;29;20047;-49
2022/12/21 04:54:10;;;;;;;27.58;21.67;;;;;;;19.25;47.07;101738.81;4789523;30;20509;-49
2022/12/21 04:56:37;;;;;;;32.25;23.45;;;;;;;19.26;47.23;101728.94;4787940;29;20494;-51
2022/12/21 04:59:04;;;;;;;33.40;24.42;;;;;;;19.26;47.19;101737.84;4789450;30;20048;-50
2022/12/21 05:01:31;;;;;;;31.38;23.30;;;;;;;19.26;47.29;101737.84;4789571;30;20432;-52
2022/12/21 05:03:59;;;;;;;29.45;22.20;;;;;;;19.26;47.17;101742.38;4788717;30;20054;-49
2022/12/21 05:06:27;;;;;;;31.48;22.88;;;;;;;19.25;47.23;101724.56;4788711;30;20058;-51
2022/12/21 05:08:56;;;;;;;31.52;21.90;;;;;;;19.26;47.29;101723.56;4789145;30;20055;-50
2022/12/21 05:11:24;;;;;;;31.38;24.00;;;;;;;19.24;47.29;101721.00;4788971;30;20052;-50
2022/12/21 05:13:52;;;;;;;32.03;22.52;;;;;;;19.24;47.21;101734.44;4789011;30;20052;-49
2022/12/21 05:16:22;;;;;;;34.50;23.80;;;;;;;19.24;47.29;101745.19;4789385;30;20063;-50
2022/12/21 05:18:52;;;;;;;29.42;23.38;;;;;;;19.23;47.38;101735.38;4789027;30;20581;-53
2022/12/21 05:21:19;;;;;;;32.00;23.20;;;;;;;19.23;47.30;101732.69;4788928;30;20055;-51
2022/12/21 05:23:46;;;;;;;32.17;23.58;;;;;;;19.23;47.25;101727.31;4788670;30;20051;-51
2022/12/21 05:26:15;;;;;;;36.45;23.88;;;;;;;19.23;47.25;101719.28;4788467;30;20058;-48
2022/12/21 05:28:44;;;;;;;31.17;22.65;;;;;;;19.23;47.11;101711.22;4788055;30;20055;-50
2022/12/21 05:31:13;;;;;;;31.92;22.77;;;;;;;19.23;47.44;101721.09;4789149;30;20056;-50
2022/12/21 05:33:41;;;;;;;28.35;21.60;;;;;;;19.22;47.08;101714.88;4788644;30;20056;-49
2022/12/21 05:36:12;;;;;;;27.88;21.25;;;;;;;19.23;47.31;101710.38;4789020;30;20058;-50
2022/12/21 05:38:39;;;;;;;29.88;22.33;;;;;;;19.23;47.29;101715.72;4789027;30;20483;-49
2022/12/21 05:41:07;;;;;;;30.85;21.55;;;;;;;19.22;47.00;101722.94;4788704;30;20066;-49
2022/12/21 05:43:34;;;;;;;29.98;21.50;;;;;;;19.22;47.26;101720.25;4788953;30;20063;-50
2022/12/21 05:46:06;;;;;;;29.60;21.67;;;;;;;19.22;47.21;101720.25;4788669;30;20378;-50
2022/12/21 05:48:35;;;;;;;32.35;22.73;;;;;;;19.21;47.09;101718.53;4788499;30;20049;-50
2022/12/21 05:51:07;;;;;;;30.23;21.73;;;;;;;19.22;47.10;101720.25;4788908;30;20074;-50
2022/12/21 05:53:36;;;;;;;29.90;21.73;;;;;;;19.22;47.11;101735.50;4788567;30;20051;-51
2022/12/21 05:56:03;;;;;;;30.60;21.55;;;;;;;19.22;47.26;101730.13;4787438;30;20513;-50
2022/12/21 05:58:31;;;;;;;31.98;21.67;;;;;;;19.21;47.22;101728.41;4788021;30;20054;-52
2022/12/21 06:01:03;;;;;;;33.13;21.55;;;;;;;19.21;47.20;101729.28;4788399;30;20055;-50
2022/12/21 06:03:30;;;;;;;30.90;20.58;;;;;;;19.21;47.29;101723.91;4787942;29;20051;-52
2022/12/21 06:06:06;;;;;;;29.50;22.75;;;;;;;19.21;47.12;101721.22;4788612;30;20066;-52
2022/12/21 06:08:34;;;;;;;29.48;22.40;;;;;;;19.21;47.16;101723.91;4788084;30;20059;-50
2022/12/21 06:11:07;;;;;;;29.70;21.20;;;;;;;19.20;47.21;101716.84;4788073;30;20055;-50
2022/12/21 06:13:34;;;;;;;;;;;;;;;19.21;47.02;101713.16;4788788;30;20063;-52
2022/12/21 06:16:06;;;;;;;30.13;20.65;;;;;;;19.21;47.18;101706.94;4787481;29;20270;-51
2022/12/21 06:18:34;;;;;;;30.10;21.33;;;;;;;19.21;47.43;101706.94;4788322;30;20416;-50
2022/12/21 06:21:02;;;;;;;27.52;20.90;;;;;;;19.20;47.51;101706.09;4787164;29;20130;-49
2022/12/21 06:23:30;;;;;;;31.48;21.52;;;;;;;19.20;47.07;101721.31;4788238;30;20062;-50
2022/12/21 06:25:59;;;;;;;33.13;22.52;;;;;;;19.21;47.39;101715.00;4788435;30;20062;-49
2022/12/21 06:28:27;;;;;;;33.05;21.67;;;;;;;19.21;47.43;101720.38;4788042;30;20087;-51
2022/12/21 06:30:55;;;;;;;28.88;21.88;;;;;;;19.21;47.35;101725.75;4787924;30;20483;-49
2022/12/21 06:33:22;;;;;;;27.90;21.05;;;;;;;19.20;47.28;101715.94;4788404;30;20048;-51
2022/12/21 06:35:55;;;;;;;32.30;20.27;;;;;;;19.21;47.43;101712.31;4787808;30;20055;-51
2022/12/21 06:38:23;;;;;;;32.92;22.15;;;;;;;19.20;47.42;101714.16;4788195;30;20070;-49
2022/12/21 06:40:59;;;;;;;33.85;21.33;;;;;;;19.20;47.32;101710.56;4788217;30;20440;-51
2022/12/21 06:43:29;;;;;;;32.17;21.63;;;;;;;19.19;47.27;101711.56;4787781;30;20131;-49
2022/12/21 06:46:02;;;;;;;33.63;22.65;;;;;;;19.19;47.30;101712.41;4787700;30;20051;-49
2022/12/21 06:48:30;;;;;;;;;;;;;;;19.19;47.46;101716.91;4788714;30;20375;-49
2022/12/21 06:51:00;;;;;;;30.45;20.52;;;;;;;19.19;47.26;101720.47;4787898;30;19929;-50
2022/12/21 06:53:31;;;;;;;31.63;22.70;;;;;;;19.19;47.32;101714.25;4787770;30;20379;-49
2022/12/21 06:56:10;;;;;;;33.58;21.75;;;;;;;19.19;47.25;101712.41;4788081;30;20075;-52
2022/12/21 06:58:47;;;;;;;31.38;22.80;;;;;;;19.19;47.20;101716.91;4786534;30;20060;-50
2022/12/21 07:01:18;;;;;;;38.95;21.73;;;;;;;19.19;47.26;101711.56;4787619;30;20074;-50
2022/12/21 07:03:46;;;;;;;33.95;21.23;;;;;;;19.18;47.21;101708.00;4788317;30;20059;-51
2022/12/21 07:06:15;;;;;;;34.80;22.10;;;;;;;19.19;47.13;101708.88;4787729;30;20058;-49
2022/12/21 07:08:43;;;;;;;33.17;23.33;;;;;;;19.18;47.19;101713.38;4787671;30;20059;-49
2022/12/21 07:11:17;;;;;;;35.10;22.90;;;;;;;19.19;47.17;101706.19;4787919;30;20043;-50
2022/12/21 07:13:46;;;;;;;36.70;24.08;;;;;;;19.18;47.13;101712.53;4787526;29;20060;-53
2022/12/21 07:16:14;;;;;;;36.33;23.27;;;;;;;19.18;47.15;101729.50;4789789;30;20479;-50
2022/12/21 07:18:43;;;;;;;40.40;23.92;;;;;;;19.18;47.32;101720.59;4791449;30;20047;-50
2022/12/21 07:21:12;;;;;;;32.67;21.80;;;;;;;19.19;47.33;101719.59;4791114;30;20051;-50
2022/12/21 07:23:41;;;;;;;34.60;22.73;;;;;;;19.17;47.26;101719.72;4791087;30;20403;-52
2022/12/21 07:26:14;;;;;;;34.42;22.20;;;;;;;19.18;47.22;101715.22;4791264;30;20059;-49
2022/12/21 07:28:43;;;;;;;36.08;23.17;;;;;;;19.18;47.39;101720.59;4790639;30;20051;-52
2022/12/21 07:31:14;;;;;;;35.17;22.30;;;;;;;19.20;47.96;101724.00;4790203;30;20399;-54
2022/12/21 07:33:41;;;;;;;31.85;20.88;;;;;;;19.20;47.99;101724.88;4790725;30;20507;-51
2022/12/21 07:36:10;;;;;;;53.28;29.35;;;;;;;19.19;46.95;101733.88;4790267;30;20403;-54
2022/12/21 07:38:39;;;;;;;48.67;27.67;;;;;;;19.17;47.17;101746.56;4790670;30;20055;-52
2022/12/21 07:41:09;;;;;;;36.75;22.85;;;;;;;19.18;47.64;101745.59;4791092;30;20060;-51
2022/12/21 07:43:37;;;;;;;37.75;22.95;;;;;;;19.19;47.82;101738.41;4789659;30;20070;-53
2022/12/21 07:46:27;;;;;;;38.08;26.05;;;;;;;19.20;47.88;101746.34;4798061;29;20060;-52
2022/12/21 07:48:57;;;;;;;39.60;22.67;;;;;;;19.21;48.03;101740.00;4788978;29;20062;-53
2022/12/21 07:51:25;;;;;;;39.10;25.63;;;;;;;19.22;47.70;101741.72;4790629;30;20078;-50
2022/12/21 07:53:52;;;;;;;37.17;23.83;;;;;;;19.22;47.51;101739.03;4790136;30;20067;-52
2022/12/21 07:56:19;;;;;;;35.50;22.40;;;;;;;19.22;47.56;101732.81;4789919;29;20064;-54
2022/12/21 07:58:47;;;;;;;57.25;35.03;;;;;;;19.20;45.73;101732.94;4789015;30;20055;-50
2022/12/21 08:01:17;;;;;;;68.68;36.60;;;;;;;19.16;45.06;101727.88;4790065;29;20051;-53
2022/12/21 08:03:45;;;;;;;51.45;31.33;;;;;;;19.14;46.46;101729.81;4790162;30;20069;-54
2022/12/21 08:06:14;;;;;;;46.53;28.58;;;;;;;19.13;47.20;101730.78;4790152;30;20058;-52
2022/12/21 08:08:41;;;;;;;44.53;27.85;;;;;;;19.15;46.98;101731.53;4788561;29;20426;-51
2022/12/21 08:11:11;;;;;;;50.35;29.00;;;;;;;19.17;46.96;101722.41;4788960;30;20051;-50
2022/12/21 08:13:40;;;;;;;45.38;27.90;;;;;;;19.19;47.01;101714.25;4788651;30;20504;-54
2022/12/21 08:16:09;;;;;;;45.70;27.25;;;;;;;19.20;47.23;101719.50;4789795;30;20055;-53
2022/12/21 08:18:37;;;;;;;52.03;29.65;;;;;;;19.21;47.26;101713.16;4789759;30;20051;-52
2022/12/21 08:21:05;;;;;;;48.40;28.63;;;;;;;19.20;47.18;101707.88;4790276;30;20047;-53
2022/12/21 08:23:32;;;;;;;49.40;28.23;;;;;;;19.20;46.93;101702.53;4789920;30;20055;-53
2022/12/21 08:26:05;;;;;;;45.17;28.85;;;;;;;19.20;46.83;101715.94;4789817;29;20446;-53
2022/12/21 08:28:33;;;;;;;45.03;27.50;;;;;;;19.19;46.82;101717.78;4790128;30;20055;-50
2022/12/21 08:31:03;;;;;;;47.17;28.25;;;;;;;19.19;46.95;101708.88;4789987;30;20054;-53
2022/12/21 08:33:31;;;;;;;47.88;28.13;;;;;;;19.19;46.89;101712.41;4790126;30;20058;-53
2022/12/21 08:35:58;;;;;;;45.70;26.83;;;;;;;19.19;46.65;101708.88;4790286;30;20407;-52
2022/12/21 08:38:25;;;;;;;48.75;28.48;;;;;;;19.18;46.83;101696.41;4789859;30;20062;-51
2022/12/21 08:41:14;;;;;;;47.67;28.00;;;;;;;19.18;46.90;101697.28;4789720;30;20062;-50
2022/12/21 08:43:41;;;;;;;41.53;27.02;;;;;;;19.19;46.89;101695.44;4789692;30;20054;-50
2022/12/21 08:46:10;;;;;;;47.58;27.13;;;;;;;19.17;46.86;101698.25;4789969;30;20066;-53
2022/12/21 08:48:38;;;;;;;45.78;27.55;;;;;;;19.17;46.75;101700.94;4789773;30;20410;-53
2022/12/21 08:51:07;;;;;;;44.03;27.55;;;;;;;19.18;46.71;101702.66;4789724;30;20055;-52
2022/12/21 08:53:36;;;;;;;46.15;25.98;;;;;;;19.18;46.70;101699.09;4789687;30;20051;-50
2022/12/21 08:56:04;;;;;;;44.17;27.48;;;;;;;19.17;46.74;101714.34;4789133;29;20388;-50
2022/12/21 08:58:33;;;;;;;40.97;26.88;;;;;;;19.17;46.73;101717.03;4789867;29;20051;-51
2022/12/21 09:01:00;;;;;;;44.55;26.25;;;;;;;19.17;46.64;101714.34;4789379;30;20051;-52
2022/12/21 09:03:28;;;;;;;44.17;27.35;;;;;;;19.17;46.75;101718.88;4789017;30;20498;-53
2022/12/21 09:05:57;;;;;;;45.97;27.17;;;;;;;19.18;46.82;101717.91;4789303;30;20411;-52
2022/12/21 09:08:34;;;;;;;40.78;24.52;;;;;;;19.16;46.84;101715.34;4789247;30;20399;-51
2022/12/21 09:11:03;;;;;;;41.42;26.20;;;;;;;19.17;46.59;101719.72;4787920;30;20054;-52
2022/12/21 09:13:30;;;;;;;42.08;27.65;;;;;;;19.16;46.82;101728.75;4788811;30;20054;-52
2022/12/21 09:15:57;;;;;;;42.55;25.95;;;;;;;19.16;47.02;101739.50;4789191;30;20490;-54
2022/12/21 09:18:25;;;;;;;40.30;26.65;;;;;;;19.16;46.92;101731.44;4788962;30;20047;-51
2022/12/21 09:20:54;;;;;;;43.08;26.02;;;;;;;19.16;46.63;101726.06;4788829;30;20047;-53
2022/12/21 09:23:22;;;;;;;37.00;25.55;;;;;;;19.16;46.70;101723.38;4788936;30;20055;-52
2022/12/21 09:25:49;;;;;;;40.50;25.55;;;;;;;19.16;46.89;101730.56;4788721;30;20070;-51
2022/12/21 09:28:16;;;;;;;40.63;27.38;;;;;;;19.16;46.75;101735.91;4788997;30;20482;-54
2022/12/21 09:30:44;;;;;;;40.78;25.88;;;;;;;19.16;46.76;101728.75;4789100;30;20379;-49
2022/12/21 09:33:11;;;;;;;40.97;25.88;;;;;;;19.16;46.83;101719.81;4789038;30;20062;-50
2022/12/21 09:35:38;;;;;;;41.90;26.13;;;;;;;19.15;46.46;101716.28;4788793;30;20055;-50
2022/12/21 09:38:06;;;;;;;38.28;25.25;;;;;;;19.15;46.74;101707.38;4788479;29;20055;-52
2022/12/21 09:40:33;;;;;;;38.80;25.73;;;;;;;19.14;46.77;101709.19;4788890;30;20047;-48
2022/12/21 09:43:19;;;;;;;38.83;26.75;;;;;;;19.14;46.85;101711.88;4788942;30;20056;-49
2022/12/21 09:46:07;;;;;;;44.45;26.00;;;;;;;19.13;46.73;101710.19;4788636;30;20447;-48
2022/12/21 09:48:58;;;;;;;38.60;25.67;;;;;;;19.14;46.78;101711.88;4787452;30;20062;-49
2022/12/21 09:51:27;;;;;;;39.65;24.95;;;;;;;19.14;46.63;101708.34;4788293;30;20052;-49
2022/12/21 09:54:13;;;;;;;36.85;25.08;;;;;;;19.12;46.71;101719.19;4788458;30;20055;-49
2022/12/21 09:56:47;;;;;;;38.90;25.08;;;;;;;19.13;46.46;101714.69;4788603;29;20059;-50
2022/12/21 09:59:19;;;;;;;37.45;25.67;;;;;;;19.12;46.76;101718.31;4788924;30;20054;-49
2022/12/21 10:02:11;;;;;;;40.10;25.65;;;;;;;19.12;46.68;101712.94;4788707;30;20059;-49
2022/12/21 10:04:57;;;;;;;38.13;26.13;;;;;;;19.12;46.65;101708.47;4789101;29;20139;-49
2022/12/21 10:08:01;;;;;;;38.03;26.42;;;;;;;19.12;46.48;101694.16;4788591;30;20057;-50
2022/12/21 10:10:54;;;;;;;40.83;27.40;;;;;;;19.11;45.61;101701.34;4788616;30;20051;-49
2022/12/21 10:13:41;;;;;;;40.03;26.20;;;;;;;19.10;46.47;101702.34;4788791;30;20395;-50
2022/12/21 10:16:26;;;;;;;39.42;24.88;;;;;;;19.09;46.60;101699.78;4788585;30;20068;-49
2022/12/21 10:19:31;;;;;;;39.70;25.45;;;;;;;19.10;46.59;101683.53;4788701;30;20059;-49
2022/12/21 10:22:25;;;;;;;38.75;24.67;;;;;;;19.10;46.64;101683.53;4788655;30;20391;-49
2022/12/21 10:24:56;;;;;;;36.97;25.08;;;;;;;19.11;46.97;101681.72;4788278;30;20063;-49
2022/12/21 10:27:33;;;;;;;34.60;24.08;;;;;;;19.12;46.75;101680.75;4788585;29;20062;-51
2022/12/21 10:30:01;;;;;;;34.80;23.52;;;;;;;19.11;46.74;101676.34;4788910;29;20090;-49
2022/12/21 10:32:32;;;;;;;37.15;23.73;;;;;;;19.10;46.75;101667.44;4787015;30;20043;-51
2022/12/21 10:35:18;;;;;;;40.17;25.38;;;;;;;19.12;46.86;101660.16;4788234;30;20047;-49
2022/12/21 10:37:47;;;;;;;;;;;;;;;19.10;46.56;101662.06;4788478;30;20131;-53
2022/12/21 10:40:15;;;;;;;36.78;24.48;;;;;;;19.10;46.71;101658.53;4788134;30;20400;-52
2022/12/21 10:42:46;;;;;;;34.28;23.45;;;;;;;19.10;46.66;101648.66;4788039;30;20047;-50
2022/12/21 10:45:16;;;;;;;35.65;24.58;;;;;;;19.10;46.67;101654.03;4788107;30;20066;-50
2022/12/21 10:47:52;;;;;;;33.55;23.92;;;;;;;19.10;46.49;101648.66;4787942;30;20063;-51
2022/12/21 10:50:25;;;;;;;35.83;24.27;;;;;;;19.10;46.63;101656.72;4790946;30;20078;-51
2022/12/21 10:52:56;;;;;;;;;;;;;;;19.11;46.41;101641.47;4791701;30;20055;-51
2022/12/21 10:55:25;;;;;;;35.35;23.30;;;;;;;19.10;46.76;101648.66;4791141;29;19981;-53
2022/12/21 10:58:17;;;;;;;31.23;22.45;;;;;;;19.09;46.88;101644.25;4791314;30;20059;-52
2022/12/21 11:01:05;;;;;;;33.03;23.30;;;;;;;19.11;46.44;101647.69;4791459;30;20047;-51
2022/12/21 11:03:36;;;;;;;30.73;21.73;;;;;;;19.09;46.57;101649.63;4791248;30;20062;-49
2022/12/21 11:06:16;;;;;;;35.78;23.20;;;;;;;19.10;46.54;101656.72;4791466;30;20066;-52
2022/12/21 11:08:51;;;;;;;35.35;23.95;;;;;;;19.09;46.74;101655.00;4791492;30;20059;-49
2022/12/21 11:11:45;;;;;;;36.30;23.80;;;;;;;19.08;46.37;101642.56;4791311;30;20379;-50
2022/12/21 11:14:15;;;;;;;31.15;22.55;;;;;;;19.08;46.45;101642.56;4792217;29;20063;-50
2022/12/21 11:16:44;;;;;;;35.92;22.42;;;;;;;19.08;46.52;101645.25;4791408;30;20517;-50
2022/12/21 11:19:14;;;;;;;31.80;23.88;;;;;;;19.09;46.54;101632.69;4791411;30;20051;-50
2022/12/21 11:21:54;;;;;;;29.70;21.20;;;;;;;19.08;46.59;101631.81;4790985;30;20047;-49
2022/12/21 11:24:31;;;;;;;29.83;21.40;;;;;;;19.09;46.63;101641.59;4791135;30;20055;-53
2022/12/21 11:27:10;;;;;;;34.80;22.42;;;;;;;19.09;46.65;101632.69;4791254;30;20054;-49
2022/12/21 11:29:50;;;;;;;29.40;21.67;;;;;;;19.08;46.55;101631.81;4790847;30;20490;-50
2022/12/21 11:32:19;;;;;;;31.10;22.60;;;;;;;19.08;46.80;101626.44;4790784;30;20422;-51
2022/12/21 11:34:54;;;;;;;33.20;22.13;;;;;;;19.09;46.42;101621.94;4790859;30;20051;-48
2022/12/21 11:37:27;;;;;;;29.92;22.02;;;;;;;19.09;46.34;101627.31;4791094;30;20494;-49
2022/12/21 11:40:07;;;;;;;32.22;22.35;;;;;;;19.09;46.42;101619.25;4791195;30;20059;-49
2022/12/21 11:42:34;;;;;;;29.50;20.08;;;;;;;19.09;46.55;101620.09;4791126;30;20051;-50
2022/12/21 11:45:21;;;;;;;30.73;21.08;;;;;;;19.09;46.53;101617.44;4804098;29;20062;-49
2022/12/21 11:47:51;;;;;;;28.25;20.73;;;;;;;19.08;46.36;101606.78;4790475;30;20426;-49
2022/12/21 11:50:41;;;;;;;29.48;19.95;;;;;;;19.08;46.44;101604.09;4791091;30;20391;-51
2022/12/21 11:53:21;;;;;;;28.33;19.25;;;;;;;19.08;46.50;101606.78;4790597;30;20051;-50